Time;durP1;ratioP1;P1;durP2;ratioP2;P2;SDS_P1;SDS_P2;PMS_P1;PMS_P2;Temp;Humidity;BMP_temperature;BMP_pressure;BME280_temperature;BME280_humidity;BME280_pressure;Samples;Min_cycle;Max_cycle;Signal;HPM_P1;HPM_P2
2021/12/05 00:24:21;;;;;;;10.85;3.60;;;5.40;99.90;;;;;;5044048;28;20124;-66
2021/12/05 00:26:57;;;;;;;8.82;3.00;;;5.40;99.90;;;;;;5050653;28;20153;-65
2021/12/05 00:29:39;;;;;;;11.20;3.80;;;5.40;99.90;;;;;;5042916;28;20106;-67
2021/12/05 00:32:18;;;;;;;8.05;2.88;;;5.50;99.90;;;;;;5041410;28;20072;-65
2021/12/05 00:48:18;;;;;;;9.35;3.15;;;5.50;99.90;;;;;;5035286;28;20060;-65
2021/12/05 00:51:49;;;;;;;7.22;3.33;;;5.50;99.90;;;;;;5046152;28;20037;-66
2021/12/05 00:59:09;;;;;;;10.63;3.72;;;5.40;99.90;;;;;;5037097;28;20046;-65
2021/12/05 01:09:32;;;;;;;8.48;3.25;;;5.40;99.90;;;;;;5045976;28;20657;-66
2021/12/05 01:11:58;;;;;;;10.48;3.25;;;5.40;99.90;;;;;;5034422;28;20112;-65
2021/12/05 01:14:33;;;;;;;8.05;3.33;;;5.40;99.90;;;;;;5049626;28;20519;-66
2021/12/05 01:17:01;;;;;;;11.93;3.53;;;5.40;99.90;;;;;;5046755;28;20048;-66
2021/12/05 01:19:29;;;;;;;6.38;3.00;;;5.40;99.90;;;;;;5045381;28;20055;-65
2021/12/05 01:21:59;;;;;;;8.30;3.35;;;5.30;99.90;;;;;;5041546;28;20037;-65
2021/12/05 01:32:57;;;;;;;11.98;4.35;;;5.30;99.90;;;;;;5041017;28;20131;-65
2021/12/05 01:35:10;;;;;;;12.02;4.80;;;5.20;99.90;;;;;;5037397;28;20142;-65
2021/12/05 01:38:05;;;;;;;12.10;4.80;;;5.30;99.90;;;;;;5047915;28;20152;-65
2021/12/05 01:40:49;;;;;;;9.77;5.22;;;5.30;99.90;;;;;;5042373;28;20365;-66
2021/12/05 01:51:49;;;;;;;12.23;6.13;;;5.30;99.90;;;;;;5044138;28;20060;-65
2021/12/05 01:57:36;;;;;;;17.23;6.90;;;5.30;99.90;;;;;;5037702;28;20127;-65
2021/12/05 02:00:30;;;;;;;14.38;6.75;;;5.30;99.90;;;;;;5036522;28;20206;-66
2021/12/05 02:10:52;;;;;;;14.98;7.07;;;5.40;99.90;;;;;;5045702;28;20041;-67
2021/12/05 02:32:35;;;;;;;17.25;7.65;;;5.20;99.90;;;;;;5044731;28;20049;-65
2021/12/05 02:35:27;;;;;;;17.92;8.45;;;5.20;99.90;;;;;;5044795;28;20125;-66
2021/12/05 02:43:12;;;;;;;18.40;7.68;;;5.10;99.90;;;;;;5047130;28;20053;-65
2021/12/05 02:45:42;;;;;;;17.13;8.93;;;5.10;99.90;;;;;;5049447;28;20059;-66
2021/12/05 02:48:08;;;;;;;16.60;8.18;;;5.10;99.90;;;;;;5043968;28;20171;-65
2021/12/05 02:50:37;;;;;;;16.20;8.18;;;5.10;99.90;;;;;;5047553;28;20033;-65
2021/12/05 02:53:15;;;;;;;18.77;8.13;;;5.10;99.90;;;;;;5057284;28;20071;-65
2021/12/05 02:55:43;;;;;;;16.65;8.10;;;5.00;99.90;;;;;;5054847;28;20076;-65
2021/12/05 02:58:19;;;;;;;14.63;7.22;;;5.00;99.90;;;;;;5056050;28;20057;-66
2021/12/05 03:01:06;;;;;;;18.55;8.10;;;5.00;99.90;;;;;;5050050;28;20558;-66
2021/12/05 03:03:32;;;;;;;18.10;8.20;;;5.00;99.90;;;;;;5044862;28;20072;-66
2021/12/05 03:06:07;;;;;;;20.42;8.30;;;5.00;99.90;;;;;;5054614;28;20049;-66
2021/12/05 03:08:33;;;;;;;18.33;8.27;;;5.00;99.90;;;;;;5048910;28;20533;-66
2021/12/05 03:10:59;;;;;;;20.02;7.63;;;4.90;99.90;;;;;;5054982;28;20063;-64
2021/12/05 03:13:26;;;;;;;16.55;7.32;;;4.90;99.90;;;;;;5054318;28;20053;-65
2021/12/05 03:15:52;;;;;;;20.33;8.32;;;4.90;99.90;;;;;;5052545;28;20041;-64
2021/12/05 03:18:18;;;;;;;15.75;6.85;;;4.90;99.90;;;;;;5050840;28;20485;-65
2021/12/05 03:20:44;;;;;;;19.42;7.85;;;4.90;99.90;;;;;;5048903;28;20033;-66
2021/12/05 03:23:10;;;;;;;14.52;6.47;;;4.90;99.90;;;;;;5054141;28;20110;-64
2021/12/05 03:25:36;;;;;;;13.27;6.15;;;4.80;99.90;;;;;;5040168;28;20057;-65
2021/12/05 03:28:03;;;;;;;17.38;6.38;;;4.90;99.90;;;;;;5053964;28;20075;-64
2021/12/05 03:30:29;;;;;;;17.63;6.30;;;4.80;99.90;;;;;;5052074;28;20075;-64
2021/12/05 03:32:55;;;;;;;17.50;6.40;;;4.80;99.90;;;;;;5047611;28;20061;-65
2021/12/05 03:35:25;;;;;;;16.65;5.88;;;4.80;99.90;;;;;;5052369;28;20068;-65
2021/12/05 03:37:52;;;;;;;15.50;6.25;;;4.80;99.90;;;;;;5051371;28;20048;-65
2021/12/05 03:40:20;;;;;;;15.82;5.93;;;4.70;99.90;;;;;;5045335;28;20132;-64
2021/12/05 03:42:46;;;;;;;14.05;5.82;;;4.70;99.90;;;;;;5050927;28;20086;-65
2021/12/05 03:45:19;;;;;;;10.75;5.32;;;4.70;99.90;;;;;;5052432;28;20092;-66
2021/12/05 03:47:45;;;;;;;16.25;5.68;;;4.70;99.90;;;;;;5055280;28;20464;-65
2021/12/05 03:50:12;;;;;;;16.98;5.40;;;4.70;99.90;;;;;;5049215;28;20068;-65
2021/12/05 03:52:39;;;;;;;14.27;5.88;;;4.60;99.90;;;;;;5046202;28;20049;-65
2021/12/05 03:55:08;;;;;;;11.88;4.97;;;4.60;99.90;;;;;;5033307;28;20067;-65
2021/12/05 03:57:34;;;;;;;14.45;4.88;;;4.50;99.90;;;;;;5050176;28;20067;-64
2021/12/05 04:00:00;;;;;;;10.30;4.95;;;4.60;99.90;;;;;;5043000;28;20431;-65
2021/12/05 04:02:25;;;;;;;13.48;4.88;;;4.50;99.90;;;;;;5052864;28;20037;-65
2021/12/05 04:04:51;;;;;;;15.40;4.82;;;4.50;99.90;;;;;;5056436;28;20483;-65
2021/12/05 04:07:18;;;;;;;15.27;5.13;;;4.40;99.90;;;;;;5042637;28;20189;-65
2021/12/05 04:09:45;;;;;;;16.15;5.15;;;4.50;99.90;;;;;;5046697;28;20041;-64
2021/12/05 04:12:14;;;;;;;10.32;3.83;;;4.50;99.90;;;;;;5044200;28;20104;-64
2021/12/05 04:14:44;;;;;;;14.02;4.80;;;4.50;99.90;;;;;;5043449;28;20076;-65
2021/12/05 04:17:11;;;;;;;12.02;4.28;;;4.40;99.90;;;;;;5043507;28;20087;-64
2021/12/05 04:19:38;;;;;;;15.13;4.07;;;4.40;99.90;;;;;;5044955;28;20049;-65
2021/12/05 04:22:05;;;;;;;11.45;4.38;;;4.40;99.90;;;;;;5050444;28;20052;-65
2021/12/05 04:24:32;;;;;;;15.75;4.50;;;4.40;99.90;;;;;;5045203;28;20167;-65
2021/12/05 04:26:58;;;;;;;16.02;3.65;;;4.40;99.90;;;;;;5049706;28;20036;-65
2021/12/05 04:29:24;;;;;;;11.13;3.78;;;4.40;99.90;;;;;;5049194;28;20492;-65
2021/12/05 04:31:49;;;;;;;12.45;3.92;;;4.30;99.90;;;;;;5046093;28;20495;-64
2021/12/05 04:34:15;;;;;;;15.00;3.88;;;4.30;99.90;;;;;;5047005;28;20045;-65
2021/12/05 04:36:43;;;;;;;12.43;4.05;;;4.30;99.90;;;;;;5053690;28;20094;-64
2021/12/05 04:39:09;;;;;;;10.20;3.92;;;4.30;99.90;;;;;;5049742;28;20072;-65
2021/12/05 04:41:37;;;;;;;14.07;3.90;;;4.30;99.90;;;;;;5049423;28;20037;-65
2021/12/05 04:44:03;;;;;;;12.52;4.28;;;4.30;99.90;;;;;;5051963;28;20471;-64
2021/12/05 04:46:29;;;;;;;12.93;4.07;;;4.30;99.90;;;;;;5050453;28;20045;-64
2021/12/05 04:48:56;;;;;;;16.20;4.32;;;4.30;99.90;;;;;;5051626;28;20441;-65
2021/12/05 04:51:25;;;;;;;13.57;3.90;;;4.30;99.90;;;;;;5055471;28;20043;-65
2021/12/05 04:53:51;;;;;;;10.15;3.72;;;4.30;99.90;;;;;;5047146;28;20064;-65
2021/12/05 04:56:18;;;;;;;10.13;3.22;;;4.20;99.90;;;;;;5045506;28;20040;-65
2021/12/05 04:58:43;;;;;;;14.75;4.22;;;4.20;99.90;;;;;;5043490;28;20052;-63
2021/12/05 05:01:09;;;;;;;12.40;3.53;;;4.20;99.90;;;;;;5049157;28;20045;-64
2021/12/05 05:03:35;;;;;;;11.82;3.70;;;4.20;99.90;;;;;;5048037;28;20476;-64
2021/12/05 05:06:08;;;;;;;13.35;3.72;;;4.20;99.90;;;;;;5045016;28;20063;-64
2021/12/05 05:08:34;;;;;;;10.07;3.50;;;4.10;99.90;;;;;;5040101;28;20037;-65
2021/12/05 05:11:04;;;;;;;11.63;3.50;;;4.10;99.90;;;;;;5058260;28;20041;-65
2021/12/05 05:13:30;;;;;;;11.70;3.60;;;4.10;99.90;;;;;;5048791;28;20088;-64
2021/12/05 05:15:56;;;;;;;13.35;3.42;;;4.10;99.90;;;;;;5048254;28;20064;-65
2021/12/05 05:18:25;;;;;;;12.63;3.78;;;4.10;99.90;;;;;;5047145;28;20390;-65
2021/12/05 05:21:00;;;;;;;15.80;3.97;;;4.00;99.90;;;;;;5042571;28;20091;-64
2021/12/05 05:50:16;;;;;;;11.57;4.00;;;4.30;99.90;;;;;;5040455;28;20077;-64
2021/12/05 05:52:42;;;;;;;12.35;4.03;;;4.30;99.90;;;;;;5046852;28;20391;-65
2021/12/05 05:55:08;;;;;;;11.95;3.95;;;4.30;99.90;;;;;;5045615;28;20132;-66
2021/12/05 05:57:41;;;;;;;18.35;4.57;;;4.30;99.90;;;;;;5045280;28;20396;-64
2021/12/05 06:00:16;;;;;;;11.93;4.00;;;4.30;99.90;;;;;;5032512;28;20142;-65
2021/12/05 06:05:29;;;;;;;15.25;4.20;;;4.30;99.90;;;;;;5045091;28;20055;-65
2021/12/05 06:07:55;;;;;;;13.98;4.75;;;4.30;99.90;;;;;;5044552;28;20033;-64
2021/12/05 06:10:27;;;;;;;12.52;5.35;;;4.40;99.90;;;;;;5045514;28;20420;-65
2021/12/05 06:12:52;;;;;;;13.40;5.10;;;4.40;99.90;;;;;;5042481;28;20053;-65
2021/12/05 06:15:21;;;;;;;17.48;6.85;;;4.40;99.90;;;;;;5043906;28;20033;-65
2021/12/05 06:17:47;;;;;;;18.63;6.55;;;4.40;99.90;;;;;;5044251;28;20151;-65
2021/12/05 06:20:16;;;;;;;15.68;7.00;;;4.40;99.90;;;;;;5047335;28;20127;-66
2021/12/05 06:22:43;;;;;;;15.77;6.43;;;4.50;99.90;;;;;;5048858;28;20683;-65
2021/12/05 06:25:13;;;;;;;20.75;7.05;;;4.50;99.90;;;;;;5039582;28;20036;-65
2021/12/05 06:27:39;;;;;;;18.40;7.32;;;4.50;99.90;;;;;;5045549;28;20049;-65
2021/12/05 06:30:16;;;;;;;15.82;7.05;;;4.50;99.90;;;;;;5032530;28;20465;-66
2021/12/05 06:41:24;;;;;;;18.40;6.03;;;4.50;99.90;;;;;;5012370;28;20048;-66
2021/12/05 06:46:31;;;;;;;14.32;7.03;;;4.60;99.90;;;;;;5041560;28;20116;-65
2021/12/05 06:48:57;;;;;;;15.10;7.10;;;4.60;99.90;;;;;;5047596;28;20040;-65
2021/12/05 06:51:25;;;;;;;17.83;7.47;;;4.70;99.90;;;;;;5046475;28;20102;-65
2021/12/05 06:53:52;;;;;;;19.25;7.72;;;4.70;99.90;;;;;;5045384;28;20376;-65
2021/12/05 06:56:18;;;;;;;14.50;7.18;;;4.70;99.90;;;;;;5045191;28;20106;-66
2021/12/05 06:58:44;;;;;;;16.27;6.93;;;4.70;99.90;;;;;;5045842;28;20179;-66
2021/12/05 07:01:12;;;;;;;16.88;7.78;;;4.70;99.90;;;;;;5044044;28;20368;-66
2021/12/05 07:03:41;;;;;;;14.18;6.70;;;4.70;99.90;;;;;;5047049;28;20567;-66
2021/12/05 07:06:12;;;;;;;15.98;7.57;;;4.70;99.90;;;;;;5049281;28;20066;-66
2021/12/05 07:08:42;;;;;;;18.60;8.30;;;4.70;99.90;;;;;;5051802;28;20060;-65
2021/12/05 07:14:19;;;;;;;17.98;7.80;;;4.70;99.90;;;;;;5047872;28;20143;-65
2021/12/05 07:16:53;;;;;;;17.00;6.95;;;4.70;99.90;;;;;;5050745;28;20446;-67
2021/12/05 07:19:40;;;;;;;14.02;7.40;;;4.70;99.90;;;;;;5048416;28;20193;-66
2021/12/05 07:22:17;;;;;;;15.40;7.45;;;4.70;99.90;;;;;;5043407;28;20052;-66
2021/12/05 07:24:51;;;;;;;15.65;7.03;;;4.70;99.90;;;;;;5032961;28;20428;-67
2021/12/05 07:43:39;;;;;;;21.10;9.30;;;4.70;99.90;;;;;;5046390;28;20049;-66
2021/12/05 07:46:07;;;;;;;18.52;8.02;;;4.80;99.90;;;;;;5046444;28;20458;-66
2021/12/05 07:48:36;;;;;;;16.90;8.27;;;4.80;99.90;;;;;;5052346;28;20036;-66
2021/12/05 07:51:24;;;;;;;14.60;7.75;;;4.80;99.90;;;;;;5047094;28;20059;-65
2021/12/05 07:57:15;;;;;;;13.50;8.02;;;4.80;99.90;;;;;;5049041;28;20088;-66
2021/12/05 07:59:22;;;;;;;16.50;7.75;;;4.80;99.90;;;;;;5038920;28;20632;-65
2021/12/05 08:15:39;;;;;;;19.85;8.52;;;4.90;99.90;;;;;;5043331;28;20049;-64
2021/12/05 08:18:05;;;;;;;15.32;7.05;;;4.90;99.90;;;;;;5048589;28;20057;-64
2021/12/05 08:20:35;;;;;;;15.30;7.53;;;4.90;99.90;;;;;;5045322;28;20039;-64
2021/12/05 08:23:03;;;;;;;13.82;7.80;;;4.90;99.90;;;;;;5040886;28;20044;-64
2021/12/05 08:25:31;;;;;;;17.13;8.20;;;4.90;99.90;;;;;;5043047;28;20068;-66
2021/12/05 08:28:17;;;;;;;13.65;7.43;;;5.00;99.90;;;;;;5043106;28;20083;-64
2021/12/05 08:30:48;;;;;;;13.73;7.75;;;5.00;99.90;;;;;;5042793;28;20045;-63
2021/12/05 08:33:31;;;;;;;16.00;6.93;;;4.90;99.90;;;;;;5041602;28;20037;-64
2021/12/05 09:27:31;;;;;;;13.52;6.28;;;5.10;99.90;;;;;;5048757;28;20515;-64
2021/12/05 10:02:39;;;;;;;13.10;6.20;;;5.30;99.90;;;;;;5050707;28;20053;-66
2021/12/05 10:08:21;;;;;;;11.18;5.47;;;5.30;99.90;;;;;;5052310;28;20049;-66
2021/12/05 10:11:02;;;;;;;10.10;6.10;;;5.30;99.90;;;;;;5047870;28;20158;-67
2021/12/05 10:13:31;;;;;;;12.63;5.60;;;5.30;99.90;;;;;;5051546;28;20052;-67
2021/12/05 10:16:17;;;;;;;9.77;5.32;;;5.40;99.90;;;;;;5031776;28;20052;-65
2021/12/05 10:35:53;;;;;;;10.68;5.57;;;5.40;99.90;;;;;;5051825;28;20060;-66
2021/12/05 10:38:24;;;;;;;11.98;6.22;;;5.40;99.90;;;;;;5048958;28;20135;-65
2021/12/05 10:41:02;;;;;;;13.45;5.97;;;5.40;99.90;;;;;;5028372;28;20044;-65
2021/12/05 10:43:30;;;;;;;10.80;5.32;;;5.40;99.90;;;;;;5049147;28;20053;-67
2021/12/05 10:46:07;;;;;;;7.60;4.95;;;5.50;99.90;;;;;;5048579;28;20106;-67
2021/12/05 10:48:51;;;;;;;11.10;5.90;;;5.50;99.90;;;;;;5045293;28;20055;-65
2021/12/05 10:51:29;;;;;;;11.88;5.78;;;5.50;99.90;;;;;;5045832;28;20041;-68
2021/12/05 10:53:58;;;;;;;11.38;5.85;;;5.50;99.90;;;;;;5049222;28;20488;-65
2021/12/05 10:56:35;;;;;;;12.73;5.38;;;5.50;99.90;;;;;;5044506;28;20102;-64
2021/12/05 10:59:07;;;;;;;10.98;5.00;;;5.60;99.90;;;;;;5043881;28;20136;-64
2021/12/05 11:01:46;;;;;;;10.68;4.97;;;5.60;99.90;;;;;;5045839;28;20083;-64
2021/12/05 11:04:21;;;;;;;9.95;5.15;;;5.60;99.90;;;;;;5046332;28;20064;-65
2021/12/05 11:06:51;;;;;;;14.50;5.90;;;5.70;99.90;;;;;;5043934;28;20064;-62
2021/12/05 11:09:20;;;;;;;10.07;4.90;;;5.70;99.90;;;;;;5021544;28;20064;-65
2021/12/05 11:11:51;;;;;;;11.82;5.15;;;5.80;99.90;;;;;;5042828;28;20122;-66
2021/12/05 11:14:25;;;;;;;11.18;6.10;;;5.90;99.90;;;;;;5048361;28;20040;-64
2021/12/05 11:16:57;;;;;;;10.77;5.43;;;5.90;99.90;;;;;;5048842;28;20045;-66
2021/12/05 11:19:28;;;;;;;9.88;5.22;;;6.00;99.90;;;;;;5052087;28;20048;-67
2021/12/05 11:22:07;;;;;;;11.05;5.30;;;6.10;99.90;;;;;;5048247;28;20053;-66
2021/12/05 11:24:38;;;;;;;8.07;4.80;;;6.20;99.90;;;;;;5048463;28;20381;-68
2021/12/05 11:27:29;;;;;;;11.30;5.45;;;6.30;99.90;;;;;;5050517;28;20033;-67
2021/12/05 11:30:10;;;;;;;9.10;5.05;;;6.40;99.90;;;;;;5043288;28;20068;-66
2021/12/05 11:32:58;;;;;;;9.77;5.15;;;6.50;99.90;;;;;;5044609;28;20110;-64
